sensor_id;sensor_type;location;lat;lon;timestamp;pressure;altitude;pressure_sealevel;temperature;humidity
39265;BME280;42646;51.910;7.724;2022-08-19T00:01:38;100726.88;;;17.46;99.36
39265;BME280;42646;51.910;7.724;2022-08-19T00:04:09;100733.44;;;17.44;99.21
39265;BME280;42646;51.910;7.724;2022-08-19T00:06:42;100728.41;;;17.41;99.83
39265;BME280;42646;51.910;7.724;2022-08-19T00:09:10;100731.13;;;17.41;99.28
39265;BME280;42646;51.910;7.724;2022-08-19T00:11:39;100737.03;;;17.36;100.00
39265;BME280;42646;51.910;7.724;2022-08-19T00:14:09;100734.72;;;17.33;100.00
39265;BME280;42646;51.910;7.724;2022-08-19T00:16:38;100732.22;;;17.31;100.00
39265;BME280;42646;51.910;7.724;2022-08-19T00:19:07;100737.94;;;17.28;100.00
39265;BME280;42646;51.910;7.724;2022-08-19T00:21:35;100740.97;;;17.25;100.00
39265;BME280;42646;51.910;7.724;2022-08-19T00:24:06;100738.47;;;17.24;100.00
39265;BME280;42646;51.910;7.724;2022-08-19T00:26:35;100739.50;;;17.23;100.00
39265;BME280;42646;51.910;7.724;2022-08-19T00:29:05;100750.44;;;17.21;100.00
39265;BME280;42646;51.910;7.724;2022-08-19T00:31:33;100748.91;;;17.19;100.00
39265;BME280;42646;51.910;7.724;2022-08-19T00:34:01;100735.03;;;17.15;100.00
39265;BME280;42646;51.910;7.724;2022-08-19T00:36:29;100741.56;;;17.13;99.99
39265;BME280;42646;51.910;7.724;2022-08-19T00:38:59;100742.78;;;17.10;99.47
39265;BME280;42646;51.910;7.724;2022-08-19T00:41:28;100741.25;;;17.07;99.95
39265;BME280;42646;51.910;7.724;2022-08-19T00:44:00;100742.97;;;17.08;100.00
39265;BME280;42646;51.910;7.724;2022-08-19T00:46:29;100742.97;;;17.08;100.00
39265;BME280;42646;51.910;7.724;2022-08-19T00:48:58;100735.25;;;17.05;100.00
39265;BME280;42646;51.910;7.724;2022-08-19T00:51:28;100727.56;;;17.02;100.00
39265;BME280;42646;51.910;7.724;2022-08-19T00:53:58;100731.41;;;17.00;100.00
39265;BME280;42646;51.910;7.724;2022-08-19T00:56:29;100732.63;;;16.97;100.00
39265;BME280;42646;51.910;7.724;2022-08-19T00:58:58;100722.88;;;16.96;100.00
39265;BME280;42646;51.910;7.724;2022-08-19T01:01:26;100712.47;;;16.93;100.00
39265;BME280;42646;51.910;7.724;2022-08-19T01:03:54;100713.84;;;16.89;100.00
39265;BME280;42646;51.910;7.724;2022-08-19T01:06:24;100717.72;;;16.87;100.00
39265;BME280;42646;51.910;7.724;2022-08-19T01:08:53;100712.53;;;16.85;100.00
39265;BME280;42646;51.910;7.724;2022-08-19T01:11:21;100715.03;;;16.87;100.00
39265;BME280;42646;51.910;7.724;2022-08-19T01:13:52;100717.09;;;16.85;100.00
39265;BME280;42646;51.910;7.724;2022-08-19T01:16:22;100712.69;;;16.83;100.00
39265;BME280;42646;51.910;7.724;2022-08-19T01:18:51;100712.25;;;16.80;100.00
39265;BME280;42646;51.910;7.724;2022-08-19T01:21:23;100710.06;;;16.75;100.00
39265;BME280;42646;51.910;7.724;2022-08-19T01:23:54;100706.75;;;16.73;100.00
39265;BME280;42646;51.910;7.724;2022-08-19T01:26:24;100712.28;;;16.72;100.00
39265;BME280;42646;51.910;7.724;2022-08-19T01:28:53;100711.44;;;16.71;100.00
39265;BME280;42646;51.910;7.724;2022-08-19T01:31:28;100715.28;;;16.69;100.00
39265;BME280;42646;51.910;7.724;2022-08-19T01:33:58;100718.66;;;16.71;100.00
39265;BME280;42646;51.910;7.724;2022-08-19T01:36:29;100724.72;;;16.65;100.00
39265;BME280;42646;51.910;7.724;2022-08-19T01:39:00;100729.44;;;16.63;100.00
39265;BME280;42646;51.910;7.724;2022-08-19T01:41:28;100718.19;;;16.59;100.00
39265;BME280;42646;51.910;7.724;2022-08-19T01:43:56;100713.19;;;16.56;100.00
39265;BME280;42646;51.910;7.724;2022-08-19T01:46:43;100720.41;;;16.55;100.00
39265;BME280;42646;51.910;7.724;2022-08-19T01:49:11;100717.88;;;16.54;100.00
39265;BME280;42646;51.910;7.724;2022-08-19T01:51:39;100718.25;;;16.51;100.00
39265;BME280;42646;51.910;7.724;2022-08-19T01:54:09;100715.06;;;16.47;100.00
39265;BME280;42646;51.910;7.724;2022-08-19T01:56:37;100710.06;;;16.44;100.00
39265;BME280;42646;51.910;7.724;2022-08-19T01:59:08;100709.38;;;16.42;100.00
39265;BME280;42646;51.910;7.724;2022-08-19T02:01:37;100710.38;;;16.41;100.00
39265;BME280;42646;51.910;7.724;2022-08-19T02:04:05;100707.88;;;16.40;100.00
39265;BME280;42646;51.910;7.724;2022-08-19T02:06:33;100712.59;;;16.38;100.00
39265;BME280;42646;51.910;7.724;2022-08-19T02:09:01;100711.09;;;16.35;100.00
39265;BME280;42646;51.910;7.724;2022-08-19T02:11:33;100708.59;;;16.34;100.00
39265;BME280;42646;51.910;7.724;2022-08-19T02:14:04;100706.06;;;16.32;100.00
39265;BME280;42646;51.910;7.724;2022-08-19T02:16:32;100704.22;;;16.33;100.00
39265;BME280;42646;51.910;7.724;2022-08-19T02:19:00;100701.53;;;16.33;100.00
39265;BME280;42646;51.910;7.724;2022-08-19T02:21:29;100698.84;;;16.33;100.00
39265;BME280;42646;51.910;7.724;2022-08-19T02:23:57;100694.50;;;16.32;100.00
39265;BME280;42646;51.910;7.724;2022-08-19T02:26:25;100702.06;;;16.28;100.00
39265;BME280;42646;51.910;7.724;2022-08-19T02:28:56;100696.19;;;16.24;100.00
39265;BME280;42646;51.910;7.724;2022-08-19T02:31:26;100686.84;;;16.20;100.00
39265;BME280;42646;51.910;7.724;2022-08-19T02:33:54;100691.53;;;16.18;100.00
39265;BME280;42646;51.910;7.724;2022-08-19T02:36:24;100692.72;;;16.16;100.00
39265;BME280;42646;51.910;7.724;2022-08-19T02:38:53;100693.56;;;16.16;100.00
39265;BME280;42646;51.910;7.724;2022-08-19T02:41:23;100695.41;;;16.16;100.00
39265;BME280;42646;51.910;7.724;2022-08-19T02:43:52;100697.25;;;16.15;100.00
39265;BME280;42646;51.910;7.724;2022-08-19T02:46:42;100702.94;;;16.12;100.00
39265;BME280;42646;51.910;7.724;2022-08-19T02:49:11;100704.97;;;16.10;100.00
39265;BME280;42646;51.910;7.724;2022-08-19T02:51:44;100704.47;;;16.07;100.00
39265;BME280;42646;51.910;7.724;2022-08-19T02:54:13;100695.94;;;16.03;100.00
39265;BME280;42646;51.910;7.724;2022-08-19T02:56:43;100697.97;;;16.01;100.00
39265;BME280;42646;51.910;7.724;2022-08-19T02:59:11;100678.34;;;16.00;100.00
39265;BME280;42646;51.910;7.724;2022-08-19T03:01:41;100685.41;;;16.01;100.00
39265;BME280;42646;51.910;7.724;2022-08-19T03:04:11;100676.50;;;16.01;100.00
39265;BME280;42646;51.910;7.724;2022-08-19T03:06:41;100683.38;;;16.03;100.00
39265;BME280;42646;51.910;7.724;2022-08-19T03:09:10;100678.66;;;16.06;100.00
39265;BME280;42646;51.910;7.724;2022-08-19T03:11:38;100693.09;;;16.05;100.00
39265;BME280;42646;51.910;7.724;2022-08-19T03:14:08;100683.38;;;16.03;100.00
39265;BME280;42646;51.910;7.724;2022-08-19T03:16:43;100697.63;;;16.04;100.00
39265;BME280;42646;51.910;7.724;2022-08-19T03:19:12;100687.91;;;16.03;100.00
39265;BME280;42646;51.910;7.724;2022-08-19T03:21:39;100684.19;;;16.04;100.00
39265;BME280;42646;51.910;7.724;2022-08-19T03:24:08;100693.28;;;16.03;100.00
39265;BME280;42646;51.910;7.724;2022-08-19T03:26:38;100703.34;;;16.01;100.00
39265;BME280;42646;51.910;7.724;2022-08-19T03:29:06;100702.34;;;16.02;100.00
39265;BME280;42646;51.910;7.724;2022-08-19T03:31:37;100705.16;;;16.00;100.00
39265;BME280;42646;51.910;7.724;2022-08-19T03:34:16;100702.66;;;15.99;100.00
39265;BME280;42646;51.910;7.724;2022-08-19T03:36:45;100712.75;;;15.97;100.00
39265;BME280;42646;51.910;7.724;2022-08-19T03:39:14;100707.56;;;15.95;100.00
39265;BME280;42646;51.910;7.724;2022-08-19T03:41:43;100698.81;;;15.93;100.00
39265;BME280;42646;51.910;7.724;2022-08-19T03:44:14;100695.31;;;15.93;100.00
39265;BME280;42646;51.910;7.724;2022-08-19T03:46:45;100698.00;;;15.93;100.00
39265;BME280;42646;51.910;7.724;2022-08-19T03:49:15;100695.47;;;15.91;100.00
39265;BME280;42646;51.910;7.724;2022-08-19T03:51:46;100704.38;;;15.92;100.00
39265;BME280;42646;51.910;7.724;2022-08-19T03:54:16;100713.25;;;15.92;100.00
39265;BME280;42646;51.910;7.724;2022-08-19T03:56:46;100708.72;;;15.93;100.00
39265;BME280;42646;51.910;7.724;2022-08-19T03:59:17;100711.41;;;15.93;100.00
39265;BME280;42646;51.910;7.724;2022-08-19T04:01:46;100703.53;;;15.91;100.00
39265;BME280;42646;51.910;7.724;2022-08-19T04:04:15;100707.38;;;15.89;100.00
39265;BME280;42646;51.910;7.724;2022-08-19T04:06:45;100702.19;;;15.87;100.00
39265;BME280;42646;51.910;7.724;2022-08-19T04:09:13;100704.22;;;15.85;100.00
39265;BME280;42646;51.910;7.724;2022-08-19T04:11:43;100713.09;;;15.86;100.00
39265;BME280;42646;51.910;7.724;2022-08-19T04:14:12;100709.41;;;15.87;100.00
39265;BME280;42646;51.910;7.724;2022-08-19T04:16:41;100714.94;;;15.85;100.00
39265;BME280;42646;51.910;7.724;2022-08-19T04:19:11;100716.28;;;15.81;100.00
39265;BME280;42646;51.910;7.724;2022-08-19T04:21:42;100716.66;;;15.78;100.00
39265;BME280;42646;51.910;7.724;2022-08-19T04:24:10;100718.31;;;15.79;100.00
39265;BME280;42646;51.910;7.724;2022-08-19T04:26:38;100711.28;;;15.78;100.00
39265;BME280;42646;51.910;7.724;2022-08-19T04:29:08;100707.78;;;15.78;100.00
39265;BME280;42646;51.910;7.724;2022-08-19T04:31:38;100707.41;;;15.81;100.00
39265;BME280;42646;51.910;7.724;2022-08-19T04:34:08;100710.78;;;15.74;100.00
39265;BME280;42646;51.910;7.724;2022-08-19T04:36:40;100710.13;;;15.72;100.00
39265;BME280;42646;51.910;7.724;2022-08-19T04:39:11;100713.13;;;15.69;100.00
39265;BME280;42646;51.910;7.724;2022-08-19T04:41:39;100716.00;;;15.68;100.00
39265;BME280;42646;51.910;7.724;2022-08-19T04:44:24;100707.09;;;15.67;100.00
39265;BME280;42646;51.910;7.724;2022-08-19T04:46:52;100712.47;;;15.67;100.00
39265;BME280;42646;51.910;7.724;2022-08-19T04:49:22;100709.78;;;15.67;100.00
39265;BME280;42646;51.910;7.724;2022-08-19T04:51:53;100711.47;;;15.68;100.00
39265;BME280;42646;51.910;7.724;2022-08-19T04:54:22;100717.66;;;15.69;100.00
39265;BME280;42646;51.910;7.724;2022-08-19T04:57:05;100712.47;;;15.67;100.00
39265;BME280;42646;51.910;7.724;2022-08-19T04:59:35;100715.34;;;15.66;100.00
39265;BME280;42646;51.910;7.724;2022-08-19T05:02:03;100717.19;;;15.65;100.00
39265;BME280;42646;51.910;7.724;2022-08-19T05:04:31;100721.69;;;15.65;100.00
39265;BME280;42646;51.910;7.724;2022-08-19T05:07:01;100728.06;;;15.64;100.00
39265;BME280;42646;51.910;7.724;2022-08-19T05:09:29;100730.91;;;15.62;100.00
39265;BME280;42646;51.910;7.724;2022-08-19T05:12:17;100735.41;;;15.62;100.00
39265;BME280;42646;51.910;7.724;2022-08-19T05:14:46;100735.41;;;15.62;100.00
39265;BME280;42646;51.910;7.724;2022-08-19T05:17:15;100739.94;;;15.61;100.00
39265;BME280;42646;51.910;7.724;2022-08-19T05:19:53;100747.84;;;15.63;100.00
39265;BME280;42646;51.910;7.724;2022-08-19T05:22:40;100749.69;;;15.62;100.00
39265;BME280;42646;51.910;7.724;2022-08-19T05:25:10;100750.53;;;15.63;100.00
39265;BME280;42646;51.910;7.724;2022-08-19T05:27:40;100750.66;;;15.61;100.00
39265;BME280;42646;51.910;7.724;2022-08-19T05:30:10;100750.66;;;15.61;100.00
39265;BME280;42646;51.910;7.724;2022-08-19T05:32:38;100748.66;;;15.63;100.00
39265;BME280;42646;51.910;7.724;2022-08-19T05:35:07;100746.69;;;15.65;100.00
39265;BME280;42646;51.910;7.724;2022-08-19T05:37:35;100748.34;;;15.66;100.00
39265;BME280;42646;51.910;7.724;2022-08-19T05:40:05;100741.78;;;15.69;100.00
39265;BME280;42646;51.910;7.724;2022-08-19T05:42:33;100743.31;;;15.71;100.00
39265;BME280;42646;51.910;7.724;2022-08-19T05:45:02;100743.13;;;15.73;100.00
39265;BME280;42646;51.910;7.724;2022-08-19T05:47:30;100738.25;;;15.76;100.00
39265;BME280;42646;51.910;7.724;2022-08-19T05:49:58;100742.78;;;15.84;100.00
39265;BME280;42646;51.910;7.724;2022-08-19T05:52:30;100736.38;;;15.93;100.00
39265;BME280;42646;51.910;7.724;2022-08-19T05:54:58;100736.72;;;15.98;100.00
39265;BME280;42646;51.910;7.724;2022-08-19T05:57:27;100733.34;;;16.05;100.00
39265;BME280;42646;51.910;7.724;2022-08-19T05:59:56;100730.81;;;16.11;100.00
39265;BME280;42646;51.910;7.724;2022-08-19T06:02:24;100723.72;;;16.18;100.00
39265;BME280;42646;51.910;7.724;2022-08-19T06:04:52;100731.78;;;16.26;100.00
39265;BME280;42646;51.910;7.724;2022-08-19T06:07:20;100735.44;;;16.34;100.00
39265;BME280;42646;51.910;7.724;2022-08-19T06:09:48;100734.41;;;16.43;100.00
39265;BME280;42646;51.910;7.724;2022-08-19T06:12:27;100735.00;;;16.53;100.00
39265;BME280;42646;51.910;7.724;2022-08-19T06:14:58;100733.97;;;16.62;100.00
39265;BME280;42646;51.910;7.724;2022-08-19T06:17:27;100735.47;;;16.73;100.00
39265;BME280;42646;51.910;7.724;2022-08-19T06:19:57;100733.84;;;16.87;100.00
39265;BME280;42646;51.910;7.724;2022-08-19T06:22:25;100735.78;;;17.01;100.00
39265;BME280;42646;51.910;7.724;2022-08-19T06:24:53;100730.66;;;17.14;100.00
39265;BME280;42646;51.910;7.724;2022-08-19T06:27:21;100738.13;;;17.27;100.00
39265;BME280;42646;51.910;7.724;2022-08-19T06:29:50;100734.81;;;17.40;100.00
39265;BME280;42646;51.910;7.724;2022-08-19T06:32:18;100740.59;;;17.51;100.00
39265;BME280;42646;51.910;7.724;2022-08-19T06:34:46;100727.75;;;17.61;100.00
39265;BME280;42646;51.910;7.724;2022-08-19T06:37:14;100732.69;;;17.73;100.00
39265;BME280;42646;51.910;7.724;2022-08-19T06:39:43;100717.13;;;17.83;100.00
39265;BME280;42646;51.910;7.724;2022-08-19T06:42:12;100719.38;;;17.94;100.00
39265;BME280;42646;51.910;7.724;2022-08-19T06:44:45;100711.66;;;18.06;100.00
39265;BME280;42646;51.910;7.724;2022-08-19T06:47:18;100722.59;;;18.19;100.00
39265;BME280;42646;51.910;7.724;2022-08-19T06:49:54;100712.69;;;18.34;100.00
39265;BME280;42646;51.910;7.724;2022-08-19T06:52:28;100715.53;;;18.48;100.00
39265;BME280;42646;51.910;7.724;2022-08-19T06:54:59;100713.81;;;18.61;100.00
39265;BME280;42646;51.910;7.724;2022-08-19T06:57:32;100713.81;;;18.76;100.00
39265;BME280;42646;51.910;7.724;2022-08-19T07:00:00;100706.72;;;18.90;100.00
39265;BME280;42646;51.910;7.724;2022-08-19T07:02:29;100699.22;;;19.07;100.00
39265;BME280;42646;51.910;7.724;2022-08-19T07:04:56;100711.41;;;19.24;100.00
39265;BME280;42646;51.910;7.724;2022-08-19T07:07:24;100709.66;;;19.38;100.00
39265;BME280;42646;51.910;7.724;2022-08-19T07:09:52;100717.47;;;19.54;100.00
39265;BME280;42646;51.910;7.724;2022-08-19T07:12:27;100715.72;;;19.68;100.00
39265;BME280;42646;51.910;7.724;2022-08-19T07:14:57;100718.13;;;19.84;100.00
39265;BME280;42646;51.910;7.724;2022-08-19T07:17:25;100728.06;;;20.05;100.00
39265;BME280;42646;51.910;7.724;2022-08-19T07:19:54;100724.63;;;20.24;100.00
39265;BME280;42646;51.910;7.724;2022-08-19T07:22:22;100722.44;;;20.41;100.00
39265;BME280;42646;51.910;7.724;2022-08-19T07:24:50;100723.97;;;20.57;100.00
39265;BME280;42646;51.910;7.724;2022-08-19T07:27:18;100723.22;;;20.76;100.00
39265;BME280;42646;51.910;7.724;2022-08-19T07:29:50;100720.53;;;20.90;100.00
39265;BME280;42646;51.910;7.724;2022-08-19T07:32:23;100733.03;;;21.04;100.00
39265;BME280;42646;51.910;7.724;2022-08-19T07:34:52;100734.31;;;21.15;100.00
39265;BME280;42646;51.910;7.724;2022-08-19T07:37:21;100726.03;;;21.23;100.00
39265;BME280;42646;51.910;7.724;2022-08-19T07:39:49;100736.66;;;21.31;100.00
39265;BME280;42646;51.910;7.724;2022-08-19T07:42:16;100742.31;;;21.43;100.00
39265;BME280;42646;51.910;7.724;2022-08-19T07:44:47;100749.16;;;21.52;100.00
39265;BME280;42646;51.910;7.724;2022-08-19T07:47:17;100744.78;;;21.57;100.00
39265;BME280;42646;51.910;7.724;2022-08-19T07:50:09;100751.69;;;21.67;100.00
39265;BME280;42646;51.910;7.724;2022-08-19T07:52:39;100753.97;;;21.76;100.00
39265;BME280;42646;51.910;7.724;2022-08-19T07:55:08;100752.28;;;21.89;100.00
39265;BME280;42646;51.910;7.724;2022-08-19T07:57:56;100750.19;;;21.97;100.00
39265;BME280;42646;51.910;7.724;2022-08-19T08:00:24;100741.00;;;22.11;98.78
39265;BME280;42646;51.910;7.724;2022-08-19T08:02:52;100749.97;;;22.25;96.98
39265;BME280;42646;51.910;7.724;2022-08-19T08:05:21;100748.88;;;22.33;94.99
39265;BME280;42646;51.910;7.724;2022-08-19T08:08:11;100748.44;;;22.43;94.94
39265;BME280;42646;51.910;7.724;2022-08-19T08:10:57;100751.75;;;22.51;93.13
39265;BME280;42646;51.910;7.724;2022-08-19T08:13:26;100757.97;;;22.58;92.14
39265;BME280;42646;51.910;7.724;2022-08-19T08:15:54;100760.88;;;22.63;92.00
39265;BME280;42646;51.910;7.724;2022-08-19T08:18:22;100765.25;;;22.71;92.31
39265;BME280;42646;51.910;7.724;2022-08-19T08:20:53;100775.84;;;22.79;91.80
39265;BME280;42646;51.910;7.724;2022-08-19T08:23:23;100777.06;;;22.83;88.37
39265;BME280;42646;51.910;7.724;2022-08-19T08:25:56;100783.56;;;22.89;89.19
39265;BME280;42646;51.910;7.724;2022-08-19T08:28:25;100786.59;;;22.99;89.42
39265;BME280;42646;51.910;7.724;2022-08-19T08:30:56;100784.69;;;23.06;89.53
39265;BME280;42646;51.910;7.724;2022-08-19T08:33:26;100784.03;;;23.11;88.00
39265;BME280;42646;51.910;7.724;2022-08-19T08:36:00;100786.09;;;23.15;87.30
39265;BME280;42646;51.910;7.724;2022-08-19T08:38:31;100778.53;;;23.24;87.14
39265;BME280;42646;51.910;7.724;2022-08-19T08:41:10;100784.53;;;23.33;87.32
39265;BME280;42646;51.910;7.724;2022-08-19T08:43:48;100784.25;;;23.41;86.03
39265;BME280;42646;51.910;7.724;2022-08-19T08:46:22;100783.63;;;23.45;85.98
39265;BME280;42646;51.910;7.724;2022-08-19T08:49:01;100778.34;;;23.51;84.63
39265;BME280;42646;51.910;7.724;2022-08-19T08:51:34;100778.53;;;23.56;84.36
39265;BME280;42646;51.910;7.724;2022-08-19T08:54:07;100778.28;;;23.64;84.83
39265;BME280;42646;51.910;7.724;2022-08-19T08:56:38;100778.84;;;23.73;83.39
39265;BME280;42646;51.910;7.724;2022-08-19T08:59:10;100771.06;;;23.76;82.32
39265;BME280;42646;51.910;7.724;2022-08-19T09:01:39;100774.19;;;23.80;80.27
39265;BME280;42646;51.910;7.724;2022-08-19T09:04:07;100773.72;;;23.83;80.61
39265;BME280;42646;51.910;7.724;2022-08-19T09:06:39;100773.47;;;23.91;81.41
39265;BME280;42646;51.910;7.724;2022-08-19T09:09:14;100775.88;;;23.99;81.10
39265;BME280;42646;51.910;7.724;2022-08-19T09:11:54;100772.03;;;24.07;80.65
39265;BME280;42646;51.910;7.724;2022-08-19T09:14:36;100764.88;;;24.12;80.22
39265;BME280;42646;51.910;7.724;2022-08-19T09:17:20;100766.69;;;24.18;79.35
39265;BME280;42646;51.910;7.724;2022-08-19T09:19:58;100764.97;;;24.24;77.89
39265;BME280;42646;51.910;7.724;2022-08-19T09:22:30;100763.06;;;24.24;77.22
39265;BME280;42646;51.910;7.724;2022-08-19T09:25:00;100767.41;;;24.32;78.00
39265;BME280;42646;51.910;7.724;2022-08-19T09:27:28;100761.44;;;24.42;76.84
39265;BME280;42646;51.910;7.724;2022-08-19T09:30:12;100762.44;;;24.47;76.03
39265;BME280;42646;51.910;7.724;2022-08-19T09:32:42;100771.34;;;24.55;75.04
39265;BME280;42646;51.910;7.724;2022-08-19T09:35:11;100764.63;;;24.57;72.75
39265;BME280;42646;51.910;7.724;2022-08-19T09:37:39;100770.50;;;24.54;73.50
39265;BME280;42646;51.910;7.724;2022-08-19T09:40:11;100769.47;;;24.55;73.66
39265;BME280;42646;51.910;7.724;2022-08-19T09:42:39;100769.47;;;24.55;73.32
39265;BME280;42646;51.910;7.724;2022-08-19T09:45:18;100767.78;;;24.54;72.63
39265;BME280;42646;51.910;7.724;2022-08-19T09:47:47;100765.06;;;24.54;73.12
39265;BME280;42646;51.910;7.724;2022-08-19T09:50:15;100763.81;;;24.57;74.79
39265;BME280;42646;51.910;7.724;2022-08-19T09:52:44;100764.78;;;24.62;73.83
39265;BME280;42646;51.910;7.724;2022-08-19T09:55:24;100757.59;;;24.68;73.80
39265;BME280;42646;51.910;7.724;2022-08-19T09:57:59;100758.25;;;24.82;72.99
39265;BME280;42646;51.910;7.724;2022-08-19T10:00:27;100755.06;;;24.85;72.34
39265;BME280;42646;51.910;7.724;2022-08-19T10:02:56;100760.63;;;24.90;72.45
39265;BME280;42646;51.910;7.724;2022-08-19T10:05:24;100758.88;;;24.95;72.20
39265;BME280;42646;51.910;7.724;2022-08-19T10:08:10;100753.59;;;25.00;71.52
39265;BME280;42646;51.910;7.724;2022-08-19T10:10:41;100756.25;;;25.07;71.43
39265;BME280;42646;51.910;7.724;2022-08-19T10:13:13;100751.56;;;25.14;70.31
39265;BME280;42646;51.910;7.724;2022-08-19T10:15:41;100765.06;;;25.21;69.91
39265;BME280;42646;51.910;7.724;2022-08-19T10:18:13;100753.81;;;25.29;68.56
39265;BME280;42646;51.910;7.724;2022-08-19T10:20:42;100756.31;;;25.30;67.69
39265;BME280;42646;51.910;7.724;2022-08-19T10:23:18;100749.91;;;25.25;67.50
39265;BME280;42646;51.910;7.724;2022-08-19T10:25:48;100757.72;;;25.21;66.42
39265;BME280;42646;51.910;7.724;2022-08-19T10:28:16;100754.75;;;25.23;65.06
39265;BME280;42646;51.910;7.724;2022-08-19T10:30:45;100751.78;;;25.24;67.38
39265;BME280;42646;51.910;7.724;2022-08-19T10:33:14;100757.13;;;25.31;67.37
39265;BME280;42646;51.910;7.724;2022-08-19T10:36:03;100757.03;;;25.38;66.03
39265;BME280;42646;51.910;7.724;2022-08-19T10:38:31;100756.34;;;25.42;63.50
39265;BME280;42646;51.910;7.724;2022-08-19T10:41:08;100748.66;;;25.39;62.41
39265;BME280;42646;51.910;7.724;2022-08-19T10:43:37;100752.19;;;25.40;62.73
39265;BME280;42646;51.910;7.724;2022-08-19T10:46:06;100742.25;;;25.34;62.74
39265;BME280;42646;51.910;7.724;2022-08-19T10:48:40;100745.22;;;25.32;63.96
39265;BME280;42646;51.910;7.724;2022-08-19T10:51:07;100748.50;;;25.22;63.04
39265;BME280;42646;51.910;7.724;2022-08-19T10:53:53;100740.06;;;25.24;64.05
39265;BME280;42646;51.910;7.724;2022-08-19T10:56:23;100741.16;;;25.23;63.67
39265;BME280;42646;51.910;7.724;2022-08-19T10:59:09;100745.75;;;25.22;63.45
39265;BME280;42646;51.910;7.724;2022-08-19T11:01:41;100738.75;;;25.15;62.79
39265;BME280;42646;51.910;7.724;2022-08-19T11:04:09;100738.25;;;25.06;61.72
39265;BME280;42646;51.910;7.724;2022-08-19T11:06:38;100741.88;;;25.00;62.24
39265;BME280;42646;51.910;7.724;2022-08-19T11:09:07;100740.81;;;25.01;61.90
39265;BME280;42646;51.910;7.724;2022-08-19T11:11:38;100734.28;;;25.02;62.45
39265;BME280;42646;51.910;7.724;2022-08-19T11:14:07;100732.94;;;25.11;63.31
39265;BME280;42646;51.910;7.724;2022-08-19T11:16:36;100727.88;;;25.15;62.51
39265;BME280;42646;51.910;7.724;2022-08-19T11:19:06;100727.16;;;25.19;61.51
39265;BME280;42646;51.910;7.724;2022-08-19T11:21:36;100730.13;;;25.18;61.26
39265;BME280;42646;51.910;7.724;2022-08-19T11:24:06;100727.63;;;25.16;62.67
39265;BME280;42646;51.910;7.724;2022-08-19T11:26:37;100726.19;;;25.14;61.34
39265;BME280;42646;51.910;7.724;2022-08-19T11:29:07;100722.50;;;25.08;60.70
39265;BME280;42646;51.910;7.724;2022-08-19T11:31:40;100715.19;;;25.09;60.13
39265;BME280;42646;51.910;7.724;2022-08-19T11:34:14;100721.91;;;25.06;60.02
39265;BME280;42646;51.910;7.724;2022-08-19T11:36:45;100722.75;;;25.07;59.61
39265;BME280;42646;51.910;7.724;2022-08-19T11:39:16;100720.41;;;25.10;58.98
39265;BME280;42646;51.910;7.724;2022-08-19T11:41:45;100712.38;;;25.15;56.80
39265;BME280;42646;51.910;7.724;2022-08-19T11:44:13;100714.59;;;25.18;56.19
39265;BME280;42646;51.910;7.724;2022-08-19T11:46:43;100708.72;;;25.21;55.36
39265;BME280;42646;51.910;7.724;2022-08-19T11:49:13;100711.56;;;25.26;54.20
39265;BME280;42646;51.910;7.724;2022-08-19T11:51:42;100707.66;;;25.34;54.26
39265;BME280;42646;51.910;7.724;2022-08-19T11:54:11;100712.63;;;25.37;54.60
39265;BME280;42646;51.910;7.724;2022-08-19T11:56:40;100710.66;;;25.44;54.95
39265;BME280;42646;51.910;7.724;2022-08-19T11:59:09;100698.19;;;25.48;55.40
39265;BME280;42646;51.910;7.724;2022-08-19T12:01:40;100702.13;;;25.52;55.66
39265;BME280;42646;51.910;7.724;2022-08-19T12:04:09;100691.47;;;25.63;53.99
39265;BME280;42646;51.910;7.724;2022-08-19T12:06:39;100694.66;;;25.71;53.61
39265;BME280;42646;51.910;7.724;2022-08-19T12:09:08;100700.50;;;25.87;53.71
39265;BME280;42646;51.910;7.724;2022-08-19T12:11:37;100699.06;;;25.96;54.55
39265;BME280;42646;51.910;7.724;2022-08-19T12:14:05;100701.19;;;26.05;54.26
39265;BME280;42646;51.910;7.724;2022-08-19T12:16:43;100689.78;;;26.08;55.31
39265;BME280;42646;51.910;7.724;2022-08-19T12:19:18;100686.09;;;26.15;55.20
39265;BME280;42646;51.910;7.724;2022-08-19T12:21:48;100693.31;;;26.21;55.44
39265;BME280;42646;51.910;7.724;2022-08-19T12:24:16;100697.59;;;26.28;55.39
39265;BME280;42646;51.910;7.724;2022-08-19T12:26:49;100690.44;;;26.39;55.47
39265;BME280;42646;51.910;7.724;2022-08-19T12:29:19;100685.19;;;26.49;55.51
39265;BME280;42646;51.910;7.724;2022-08-19T12:31:51;100685.16;;;26.61;54.78
39265;BME280;42646;51.910;7.724;2022-08-19T12:34:19;100688.56;;;26.68;54.45
39265;BME280;42646;51.910;7.724;2022-08-19T12:36:47;100690.34;;;26.74;53.96
39265;BME280;42646;51.910;7.724;2022-08-19T12:39:16;100677.38;;;26.81;53.92
39265;BME280;42646;51.910;7.724;2022-08-19T12:41:43;100693.19;;;26.96;54.49
39265;BME280;42646;51.910;7.724;2022-08-19T12:44:20;100691.38;;;27.02;52.20
39265;BME280;42646;51.910;7.724;2022-08-19T12:46:56;100684.38;;;27.06;52.50
39265;BME280;42646;51.910;7.724;2022-08-19T12:49:24;100690.03;;;27.16;51.76
39265;BME280;42646;51.910;7.724;2022-08-19T12:52:12;100689.28;;;27.21;49.73
39265;BME280;42646;51.910;7.724;2022-08-19T12:54:47;100692.41;;;27.12;50.47
39265;BME280;42646;51.910;7.724;2022-08-19T12:57:20;100688.28;;;27.10;49.59
39265;BME280;42646;51.910;7.724;2022-08-19T12:59:57;100689.72;;;27.01;49.70
39265;BME280;42646;51.910;7.724;2022-08-19T13:02:26;100683.25;;;26.90;50.00